sensor_id;sensor_type;location;lat;lon;timestamp;P1;durP1;ratioP1;P2;durP2;ratioP2
15297;SDS011;7750;48.796;9.026;2022-07-06T00:00:08;3.00;;;2.30;;
15297;SDS011;7750;48.796;9.026;2022-07-06T00:05:09;5.17;;;2.77;;
15297;SDS011;7750;48.796;9.026;2022-07-06T00:10:10;4.77;;;2.33;;
15297;SDS011;7750;48.796;9.026;2022-07-06T00:15:12;3.93;;;2.30;;
15297;SDS011;7750;48.796;9.026;2022-07-06T00:20:13;5.87;;;2.70;;
15297;SDS011;7750;48.796;9.026;2022-07-06T00:25:13;4.50;;;2.53;;
15297;SDS011;7750;48.796;9.026;2022-07-06T00:30:14;3.67;;;2.60;;
15297;SDS011;7750;48.796;9.026;2022-07-06T00:35:15;3.10;;;2.23;;
15297;SDS011;7750;48.796;9.026;2022-07-06T00:40:15;3.83;;;2.53;;
15297;SDS011;7750;48.796;9.026;2022-07-06T00:45:17;4.80;;;3.17;;
15297;SDS011;7750;48.796;9.026;2022-07-06T00:50:18;4.40;;;2.70;;
15297;SDS011;7750;48.796;9.026;2022-07-06T00:55:23;8.67;;;2.57;;
15297;SDS011;7750;48.796;9.026;2022-07-06T01:00:26;3.67;;;2.33;;
15297;SDS011;7750;48.796;9.026;2022-07-06T01:05:28;5.73;;;3.13;;
15297;SDS011;7750;48.796;9.026;2022-07-06T01:10:29;3.90;;;2.70;;
15297;SDS011;7750;48.796;9.026;2022-07-06T01:15:29;3.57;;;2.60;;
15297;SDS011;7750;48.796;9.026;2022-07-06T01:20:30;5.60;;;2.83;;
15297;SDS011;7750;48.796;9.026;2022-07-06T01:25:31;3.37;;;2.50;;
15297;SDS011;7750;48.796;9.026;2022-07-06T01:30:32;4.27;;;2.57;;
15297;SDS011;7750;48.796;9.026;2022-07-06T01:35:33;5.27;;;2.50;;
15297;SDS011;7750;48.796;9.026;2022-07-06T01:40:38;3.23;;;2.23;;
15297;SDS011;7750;48.796;9.026;2022-07-06T01:45:38;5.53;;;3.17;;
15297;SDS011;7750;48.796;9.026;2022-07-06T01:50:39;5.33;;;2.50;;
15297;SDS011;7750;48.796;9.026;2022-07-06T01:55:39;4.83;;;2.37;;
15297;SDS011;7750;48.796;9.026;2022-07-06T02:00:40;4.17;;;2.40;;
15297;SDS011;7750;48.796;9.026;2022-07-06T02:05:41;4.03;;;2.30;;
15297;SDS011;7750;48.796;9.026;2022-07-06T02:10:42;4.30;;;2.50;;
15297;SDS011;7750;48.796;9.026;2022-07-06T02:15:42;6.20;;;2.23;;
15297;SDS011;7750;48.796;9.026;2022-07-06T02:20:43;4.13;;;2.27;;
15297;SDS011;7750;48.796;9.026;2022-07-06T02:25:44;5.40;;;2.70;;
15297;SDS011;7750;48.796;9.026;2022-07-06T02:30:45;5.10;;;2.37;;
15297;SDS011;7750;48.796;9.026;2022-07-06T02:35:45;6.00;;;2.30;;
15297;SDS011;7750;48.796;9.026;2022-07-06T02:40:46;4.47;;;2.63;;
15297;SDS011;7750;48.796;9.026;2022-07-06T02:45:47;5.63;;;2.73;;
15297;SDS011;7750;48.796;9.026;2022-07-06T02:50:48;3.90;;;2.13;;
15297;SDS011;7750;48.796;9.026;2022-07-06T02:55:49;4.43;;;2.70;;
15297;SDS011;7750;48.796;9.026;2022-07-06T03:00:49;5.17;;;2.50;;
15297;SDS011;7750;48.796;9.026;2022-07-06T03:05:50;3.27;;;2.60;;
15297;SDS011;7750;48.796;9.026;2022-07-06T03:10:50;4.17;;;2.60;;
15297;SDS011;7750;48.796;9.026;2022-07-06T03:15:51;6.40;;;3.37;;
15297;SDS011;7750;48.796;9.026;2022-07-06T03:20:52;5.40;;;2.73;;
15297;SDS011;7750;48.796;9.026;2022-07-06T03:25:52;4.50;;;3.30;;
15297;SDS011;7750;48.796;9.026;2022-07-06T03:30:53;4.30;;;3.00;;
15297;SDS011;7750;48.796;9.026;2022-07-06T03:35:54;6.03;;;3.10;;
15297;SDS011;7750;48.796;9.026;2022-07-06T03:40:55;5.10;;;3.03;;
15297;SDS011;7750;48.796;9.026;2022-07-06T03:45:56;6.93;;;2.83;;
15297;SDS011;7750;48.796;9.026;2022-07-06T03:50:56;5.20;;;3.43;;
15297;SDS011;7750;48.796;9.026;2022-07-06T03:55:57;3.90;;;3.07;;
15297;SDS011;7750;48.796;9.026;2022-07-06T04:01:16;8.43;;;3.67;;
15297;SDS011;7750;48.796;9.026;2022-07-06T04:06:17;6.00;;;3.53;;
15297;SDS011;7750;48.796;9.026;2022-07-06T04:11:18;7.10;;;3.77;;
15297;SDS011;7750;48.796;9.026;2022-07-06T04:16:18;4.83;;;3.30;;
15297;SDS011;7750;48.796;9.026;2022-07-06T04:21:19;5.57;;;3.50;;
15297;SDS011;7750;48.796;9.026;2022-07-06T04:26:20;6.77;;;3.97;;
15297;SDS011;7750;48.796;9.026;2022-07-06T04:31:20;5.47;;;3.73;;
15297;SDS011;7750;48.796;9.026;2022-07-06T04:36:21;4.23;;;3.40;;
15297;SDS011;7750;48.796;9.026;2022-07-06T04:41:22;7.20;;;3.73;;
15297;SDS011;7750;48.796;9.026;2022-07-06T04:46:22;13.40;;;4.87;;
15297;SDS011;7750;48.796;9.026;2022-07-06T04:51:24;6.00;;;4.47;;
15297;SDS011;7750;48.796;9.026;2022-07-06T04:56:25;7.30;;;3.87;;
15297;SDS011;7750;48.796;9.026;2022-07-06T05:01:25;6.03;;;4.30;;
15297;SDS011;7750;48.796;9.026;2022-07-06T05:06:26;7.07;;;4.30;;
15297;SDS011;7750;48.796;9.026;2022-07-06T05:11:27;6.53;;;4.00;;
15297;SDS011;7750;48.796;9.026;2022-07-06T05:16:28;4.03;;;3.20;;
15297;SDS011;7750;48.796;9.026;2022-07-06T05:21:28;4.80;;;3.87;;
15297;SDS011;7750;48.796;9.026;2022-07-06T05:26:29;7.17;;;3.93;;
15297;SDS011;7750;48.796;9.026;2022-07-06T05:31:30;4.80;;;3.40;;
15297;SDS011;7750;48.796;9.026;2022-07-06T05:36:30;7.67;;;3.80;;
15297;SDS011;7750;48.796;9.026;2022-07-06T05:41:31;7.50;;;3.60;;
15297;SDS011;7750;48.796;9.026;2022-07-06T05:46:32;3.93;;;3.00;;
15297;SDS011;7750;48.796;9.026;2022-07-06T05:51:33;5.17;;;3.33;;
15297;SDS011;7750;48.796;9.026;2022-07-06T05:56:33;4.90;;;3.40;;
15297;SDS011;7750;48.796;9.026;2022-07-06T06:01:34;5.67;;;3.10;;
15297;SDS011;7750;48.796;9.026;2022-07-06T06:06:34;7.40;;;3.40;;
15297;SDS011;7750;48.796;9.026;2022-07-06T06:11:35;6.20;;;3.30;;
15297;SDS011;7750;48.796;9.026;2022-07-06T06:16:36;4.23;;;3.20;;
15297;SDS011;7750;48.796;9.026;2022-07-06T06:21:37;5.93;;;3.20;;
15297;SDS011;7750;48.796;9.026;2022-07-06T06:26:37;4.27;;;3.30;;
15297;SDS011;7750;48.796;9.026;2022-07-06T06:31:38;10.53;;;3.60;;
15297;SDS011;7750;48.796;9.026;2022-07-06T06:36:38;8.23;;;3.47;;
15297;SDS011;7750;48.796;9.026;2022-07-06T06:41:39;4.70;;;3.13;;
15297;SDS011;7750;48.796;9.026;2022-07-06T06:46:40;4.43;;;2.97;;
15297;SDS011;7750;48.796;9.026;2022-07-06T06:51:41;4.83;;;3.30;;
15297;SDS011;7750;48.796;9.026;2022-07-06T06:56:42;4.20;;;2.63;;
15297;SDS011;7750;48.796;9.026;2022-07-06T07:01:42;7.20;;;3.40;;
15297;SDS011;7750;48.796;9.026;2022-07-06T07:06:43;6.43;;;3.60;;
15297;SDS011;7750;48.796;9.026;2022-07-06T07:11:44;5.63;;;3.10;;
15297;SDS011;7750;48.796;9.026;2022-07-06T07:16:44;4.23;;;2.90;;
15297;SDS011;7750;48.796;9.026;2022-07-06T07:21:45;9.17;;;3.93;;
15297;SDS011;7750;48.796;9.026;2022-07-06T07:26:45;4.50;;;3.20;;
15297;SDS011;7750;48.796;9.026;2022-07-06T07:31:46;5.50;;;3.40;;
15297;SDS011;7750;48.796;9.026;2022-07-06T07:36:47;8.60;;;3.30;;
15297;SDS011;7750;48.796;9.026;2022-07-06T07:41:47;8.23;;;3.20;;
15297;SDS011;7750;48.796;9.026;2022-07-06T07:46:50;4.60;;;2.83;;
15297;SDS011;7750;48.796;9.026;2022-07-06T07:51:52;5.30;;;3.33;;
15297;SDS011;7750;48.796;9.026;2022-07-06T07:56:53;8.93;;;3.37;;
15297;SDS011;7750;48.796;9.026;2022-07-06T08:01:54;7.87;;;3.17;;
15297;SDS011;7750;48.796;9.026;2022-07-06T08:06:55;7.57;;;3.50;;
15297;SDS011;7750;48.796;9.026;2022-07-06T08:11:56;5.00;;;2.93;;
15297;SDS011;7750;48.796;9.026;2022-07-06T08:16:58;11.33;;;3.30;;
15297;SDS011;7750;48.796;9.026;2022-07-06T08:21:58;13.43;;;2.90;;
15297;SDS011;7750;48.796;9.026;2022-07-06T08:26:59;4.80;;;3.00;;
15297;SDS011;7750;48.796;9.026;2022-07-06T08:32:00;10.57;;;3.60;;
15297;SDS011;7750;48.796;9.026;2022-07-06T08:37:01;5.27;;;2.90;;
15297;SDS011;7750;48.796;9.026;2022-07-06T08:42:02;4.67;;;3.20;;
15297;SDS011;7750;48.796;9.026;2022-07-06T08:47:06;6.37;;;3.70;;
15297;SDS011;7750;48.796;9.026;2022-07-06T08:52:07;6.33;;;2.90;;
15297;SDS011;7750;48.796;9.026;2022-07-06T08:57:08;5.33;;;2.77;;
15297;SDS011;7750;48.796;9.026;2022-07-06T09:02:09;5.40;;;3.43;;
15297;SDS011;7750;48.796;9.026;2022-07-06T09:07:10;6.40;;;4.23;;
15297;SDS011;7750;48.796;9.026;2022-07-06T09:12:11;7.53;;;4.40;;
15297;SDS011;7750;48.796;9.026;2022-07-06T09:17:13;5.47;;;3.77;;
15297;SDS011;7750;48.796;9.026;2022-07-06T09:22:24;7.00;;;3.60;;
15297;SDS011;7750;48.796;9.026;2022-07-06T09:27:31;8.50;;;3.80;;
15297;SDS011;7750;48.796;9.026;2022-07-06T09:32:40;5.77;;;3.53;;
15297;SDS011;7750;48.796;9.026;2022-07-06T09:37:45;8.57;;;5.03;;
15297;SDS011;7750;48.796;9.026;2022-07-06T09:42:47;8.10;;;3.50;;
15297;SDS011;7750;48.796;9.026;2022-07-06T09:48:04;5.17;;;3.70;;
15297;SDS011;7750;48.796;9.026;2022-07-06T09:53:11;4.53;;;2.80;;
15297;SDS011;7750;48.796;9.026;2022-07-06T09:58:13;4.70;;;3.70;;
15297;SDS011;7750;48.796;9.026;2022-07-06T10:03:21;7.43;;;3.20;;
15297;SDS011;7750;48.796;9.026;2022-07-06T10:18:51;5.87;;;3.53;;
15297;SDS011;7750;48.796;9.026;2022-07-06T10:23:53;8.90;;;4.50;;
15297;SDS011;7750;48.796;9.026;2022-07-06T10:29:00;6.23;;;3.87;;
15297;SDS011;7750;48.796;9.026;2022-07-06T10:34:04;5.80;;;3.97;;
15297;SDS011;7750;48.796;9.026;2022-07-06T10:39:12;7.57;;;4.20;;
15297;SDS011;7750;48.796;9.026;2022-07-06T10:44:31;6.47;;;3.97;;
15297;SDS011;7750;48.796;9.026;2022-07-06T10:49:32;8.07;;;3.80;;
15297;SDS011;7750;48.796;9.026;2022-07-06T10:54:51;5.70;;;3.60;;
15297;SDS011;7750;48.796;9.026;2022-07-06T11:00:00;4.47;;;3.23;;
15297;SDS011;7750;48.796;9.026;2022-07-06T11:05:05;11.00;;;3.53;;
15297;SDS011;7750;48.796;9.026;2022-07-06T11:10:22;5.90;;;3.60;;
15297;SDS011;7750;48.796;9.026;2022-07-06T11:26:20;4.10;;;3.00;;
15297;SDS011;7750;48.796;9.026;2022-07-06T11:31:22;5.60;;;4.00;;
15297;SDS011;7750;48.796;9.026;2022-07-06T11:41:46;10.10;;;3.63;;
15297;SDS011;7750;48.796;9.026;2022-07-06T11:46:47;7.00;;;4.27;;
15297;SDS011;7750;48.796;9.026;2022-07-06T11:52:10;6.20;;;3.40;;
15297;SDS011;7750;48.796;9.026;2022-07-06T11:57:12;6.50;;;4.00;;
15297;SDS011;7750;48.796;9.026;2022-07-06T12:02:22;7.40;;;4.00;;
15297;SDS011;7750;48.796;9.026;2022-07-06T12:07:23;8.43;;;4.50;;
15297;SDS011;7750;48.796;9.026;2022-07-06T12:12:23;6.30;;;3.50;;
15297;SDS011;7750;48.796;9.026;2022-07-06T12:17:24;6.87;;;3.60;;
15297;SDS011;7750;48.796;9.026;2022-07-06T12:22:26;4.93;;;3.40;;
15297;SDS011;7750;48.796;9.026;2022-07-06T12:27:26;7.17;;;3.93;;
15297;SDS011;7750;48.796;9.026;2022-07-06T12:32:27;7.77;;;3.43;;
15297;SDS011;7750;48.796;9.026;2022-07-06T12:37:28;4.77;;;3.20;;
15297;SDS011;7750;48.796;9.026;2022-07-06T12:42:28;4.53;;;2.63;;
15297;SDS011;7750;48.796;9.026;2022-07-06T12:47:29;8.53;;;3.20;;
15297;SDS011;7750;48.796;9.026;2022-07-06T12:52:33;6.03;;;3.50;;
15297;SDS011;7750;48.796;9.026;2022-07-06T12:57:43;5.23;;;3.17;;
15297;SDS011;7750;48.796;9.026;2022-07-06T13:02:45;6.40;;;2.97;;
15297;SDS011;7750;48.796;9.026;2022-07-06T13:07:48;4.70;;;3.20;;
15297;SDS011;7750;48.796;9.026;2022-07-06T13:12:50;5.40;;;2.90;;
15297;SDS011;7750;48.796;9.026;2022-07-06T13:17:50;5.43;;;3.23;;
15297;SDS011;7750;48.796;9.026;2022-07-06T13:22:51;4.90;;;2.77;;
15297;SDS011;7750;48.796;9.026;2022-07-06T13:27:55;5.83;;;2.60;;
15297;SDS011;7750;48.796;9.026;2022-07-06T13:32:56;4.70;;;2.80;;
15297;SDS011;7750;48.796;9.026;2022-07-06T13:37:57;9.67;;;2.80;;
15297;SDS011;7750;48.796;9.026;2022-07-06T13:42:57;4.80;;;2.83;;
15297;SDS011;7750;48.796;9.026;2022-07-06T13:47:58;5.77;;;2.97;;
15297;SDS011;7750;48.796;9.026;2022-07-06T13:52:59;5.57;;;2.70;;
15297;SDS011;7750;48.796;9.026;2022-07-06T13:58:02;2.93;;;2.20;;
15297;SDS011;7750;48.796;9.026;2022-07-06T14:03:06;8.63;;;2.53;;
15297;SDS011;7750;48.796;9.026;2022-07-06T14:08:13;7.03;;;2.63;;
15297;SDS011;7750;48.796;9.026;2022-07-06T14:13:13;4.50;;;2.67;;
15297;SDS011;7750;48.796;9.026;2022-07-06T14:18:14;7.70;;;2.70;;
15297;SDS011;7750;48.796;9.026;2022-07-06T14:23:19;3.50;;;2.20;;
15297;SDS011;7750;48.796;9.026;2022-07-06T14:28:20;5.23;;;2.40;;
15297;SDS011;7750;48.796;9.026;2022-07-06T14:33:20;4.10;;;2.60;;
15297;SDS011;7750;48.796;9.026;2022-07-06T14:38:21;4.03;;;2.60;;
15297;SDS011;7750;48.796;9.026;2022-07-06T14:43:23;4.90;;;2.60;;
15297;SDS011;7750;48.796;9.026;2022-07-06T14:48:24;5.03;;;2.33;;
15297;SDS011;7750;48.796;9.026;2022-07-06T14:53:25;4.40;;;2.57;;
15297;SDS011;7750;48.796;9.026;2022-07-06T14:58:26;3.83;;;2.37;;
15297;SDS011;7750;48.796;9.026;2022-07-06T15:03:29;9.30;;;2.67;;
15297;SDS011;7750;48.796;9.026;2022-07-06T15:08:30;5.43;;;2.00;;
15297;SDS011;7750;48.796;9.026;2022-07-06T15:13:31;3.07;;;2.50;;
15297;SDS011;7750;48.796;9.026;2022-07-06T15:18:31;3.50;;;2.60;;
15297;SDS011;7750;48.796;9.026;2022-07-06T15:23:32;4.63;;;2.37;;
15297;SDS011;7750;48.796;9.026;2022-07-06T15:28:36;5.00;;;2.17;;
15297;SDS011;7750;48.796;9.026;2022-07-06T15:33:36;5.23;;;2.70;;
15297;SDS011;7750;48.796;9.026;2022-07-06T15:38:37;4.10;;;2.60;;
15297;SDS011;7750;48.796;9.026;2022-07-06T15:43:39;3.20;;;2.20;;
15297;SDS011;7750;48.796;9.026;2022-07-06T15:48:40;4.40;;;2.27;;
15297;SDS011;7750;48.796;9.026;2022-07-06T15:53:41;6.73;;;1.73;;
15297;SDS011;7750;48.796;9.026;2022-07-06T15:58:48;4.00;;;3.10;;
15297;SDS011;7750;48.796;9.026;2022-07-06T16:03:49;3.30;;;2.23;;
15297;SDS011;7750;48.796;9.026;2022-07-06T16:08:49;6.10;;;2.40;;
15297;SDS011;7750;48.796;9.026;2022-07-06T16:13:50;2.80;;;1.90;;
15297;SDS011;7750;48.796;9.026;2022-07-06T16:18:51;4.20;;;2.07;;
15297;SDS011;7750;48.796;9.026;2022-07-06T16:23:55;3.37;;;2.00;;
15297;SDS011;7750;48.796;9.026;2022-07-06T16:28:55;4.90;;;2.10;;
15297;SDS011;7750;48.796;9.026;2022-07-06T16:33:56;3.93;;;2.50;;
15297;SDS011;7750;48.796;9.026;2022-07-06T16:38:57;3.93;;;2.10;;
15297;SDS011;7750;48.796;9.026;2022-07-06T16:43:57;4.50;;;2.00;;
15297;SDS011;7750;48.796;9.026;2022-07-06T16:48:58;4.80;;;2.20;;
15297;SDS011;7750;48.796;9.026;2022-07-06T16:53:59;3.20;;;1.80;;
15297;SDS011;7750;48.796;9.026;2022-07-06T16:58:59;10.60;;;2.70;;
15297;SDS011;7750;48.796;9.026;2022-07-06T17:04:00;3.13;;;1.60;;
15297;SDS011;7750;48.796;9.026;2022-07-06T17:09:01;3.80;;;2.10;;
15297;SDS011;7750;48.796;9.026;2022-07-06T17:14:02;3.50;;;2.20;;
15297;SDS011;7750;48.796;9.026;2022-07-06T17:19:02;4.37;;;2.13;;
15297;SDS011;7750;48.796;9.026;2022-07-06T17:24:03;7.90;;;2.93;;
15297;SDS011;7750;48.796;9.026;2022-07-06T17:29:04;7.23;;;2.50;;
15297;SDS011;7750;48.796;9.026;2022-07-06T17:34:10;5.47;;;2.57;;
15297;SDS011;7750;48.796;9.026;2022-07-06T17:39:13;6.73;;;2.67;;
15297;SDS011;7750;48.796;9.026;2022-07-06T17:44:14;6.23;;;2.90;;
15297;SDS011;7750;48.796;9.026;2022-07-06T17:49:15;5.13;;;3.17;;
15297;SDS011;7750;48.796;9.026;2022-07-06T17:54:15;5.00;;;2.80;;
15297;SDS011;7750;48.796;9.026;2022-07-06T17:59:16;3.50;;;2.80;;
15297;SDS011;7750;48.796;9.026;2022-07-06T18:04:17;5.03;;;2.70;;
15297;SDS011;7750;48.796;9.026;2022-07-06T18:09:17;4.20;;;2.80;;
15297;SDS011;7750;48.796;9.026;2022-07-06T18:14:18;13.10;;;3.33;;
15297;SDS011;7750;48.796;9.026;2022-07-06T18:19:19;5.60;;;2.50;;
15297;SDS011;7750;48.796;9.026;2022-07-06T18:24:20;5.70;;;2.87;;
15297;SDS011;7750;48.796;9.026;2022-07-06T18:29:20;3.30;;;2.30;;
15297;SDS011;7750;48.796;9.026;2022-07-06T18:34:21;4.10;;;2.37;;
15297;SDS011;7750;48.796;9.026;2022-07-06T18:39:22;10.83;;;2.53;;
15297;SDS011;7750;48.796;9.026;2022-07-06T18:44:23;6.27;;;2.80;;
15297;SDS011;7750;48.796;9.026;2022-07-06T18:49:23;6.17;;;2.37;;
15297;SDS011;7750;48.796;9.026;2022-07-06T18:54:24;3.00;;;2.30;;
15297;SDS011;7750;48.796;9.026;2022-07-06T18:59:25;4.20;;;2.40;;
15297;SDS011;7750;48.796;9.026;2022-07-06T19:04:25;6.67;;;2.20;;
15297;SDS011;7750;48.796;9.026;2022-07-06T19:09:28;3.43;;;2.43;;
15297;SDS011;7750;48.796;9.026;2022-07-06T19:14:29;5.53;;;2.07;;
15297;SDS011;7750;48.796;9.026;2022-07-06T19:19:30;4.60;;;1.60;;
15297;SDS011;7750;48.796;9.026;2022-07-06T19:24:30;2.60;;;1.90;;
15297;SDS011;7750;48.796;9.026;2022-07-06T19:29:31;4.27;;;2.00;;
15297;SDS011;7750;48.796;9.026;2022-07-06T19:34:32;4.93;;;2.00;;
15297;SDS011;7750;48.796;9.026;2022-07-06T19:39:33;4.00;;;2.00;;
15297;SDS011;7750;48.796;9.026;2022-07-06T19:44:34;3.13;;;1.93;;
15297;SDS011;7750;48.796;9.026;2022-07-06T19:49:35;2.90;;;1.80;;
15297;SDS011;7750;48.796;9.026;2022-07-06T19:54:35;3.03;;;1.97;;
15297;SDS011;7750;48.796;9.026;2022-07-06T19:59:36;4.83;;;1.63;;
15297;SDS011;7750;48.796;9.026;2022-07-06T20:04:37;5.40;;;1.70;;
15297;SDS011;7750;48.796;9.026;2022-07-06T20:09:38;4.40;;;2.03;;
15297;SDS011;7750;48.796;9.026;2022-07-06T20:14:39;5.47;;;1.80;;
15297;SDS011;7750;48.796;9.026;2022-07-06T20:19:40;3.20;;;1.30;;
15297;SDS011;7750;48.796;9.026;2022-07-06T20:24:41;2.50;;;1.40;;
15297;SDS011;7750;48.796;9.026;2022-07-06T20:29:41;3.90;;;1.77;;
15297;SDS011;7750;48.796;9.026;2022-07-06T20:34:42;3.60;;;1.97;;
15297;SDS011;7750;48.796;9.026;2022-07-06T20:39:43;5.77;;;2.03;;
15297;SDS011;7750;48.796;9.026;2022-07-06T20:44:44;4.20;;;1.50;;
15297;SDS011;7750;48.796;9.026;2022-07-06T20:49:46;2.73;;;1.57;;
15297;SDS011;7750;48.796;9.026;2022-07-06T20:54:47;2.40;;;1.43;;
15297;SDS011;7750;48.796;9.026;2022-07-06T20:59:47;5.83;;;2.00;;
15297;SDS011;7750;48.796;9.026;2022-07-06T21:04:48;2.77;;;1.57;;
15297;SDS011;7750;48.796;9.026;2022-07-06T21:09:49;3.83;;;1.67;;
15297;SDS011;7750;48.796;9.026;2022-07-06T21:14:49;3.47;;;1.80;;
15297;SDS011;7750;48.796;9.026;2022-07-06T21:19:50;3.53;;;1.80;;
15297;SDS011;7750;48.796;9.026;2022-07-06T21:24:51;3.57;;;1.83;;
15297;SDS011;7750;48.796;9.026;2022-07-06T21:29:51;6.30;;;1.70;;
15297;SDS011;7750;48.796;9.026;2022-07-06T21:34:52;3.80;;;1.93;;
15297;SDS011;7750;48.796;9.026;2022-07-06T21:39:53;4.40;;;2.37;;
15297;SDS011;7750;48.796;9.026;2022-07-06T21:44:54;3.20;;;1.77;;
15297;SDS011;7750;48.796;9.026;2022-07-06T21:49:55;3.37;;;1.80;;
15297;SDS011;7750;48.796;9.026;2022-07-06T21:54:55;4.50;;;1.90;;
15297;SDS011;7750;48.796;9.026;2022-07-06T21:59:56;2.90;;;1.77;;
15297;SDS011;7750;48.796;9.026;2022-07-06T22:04:57;4.27;;;1.87;;
15297;SDS011;7750;48.796;9.026;2022-07-06T22:09:57;3.90;;;2.00;;
15297;SDS011;7750;48.796;9.026;2022-07-06T22:14:58;3.57;;;2.03;;
15297;SDS011;7750;48.796;9.026;2022-07-06T22:19:58;3.80;;;1.90;;
15297;SDS011;7750;48.796;9.026;2022-07-06T22:25:00;3.80;;;2.03;;
15297;SDS011;7750;48.796;9.026;2022-07-06T22:30:01;2.93;;;2.00;;
15297;SDS011;7750;48.796;9.026;2022-07-06T22:35:03;5.43;;;2.40;;
15297;SDS011;7750;48.796;9.026;2022-07-06T22:40:04;4.83;;;2.13;;
15297;SDS011;7750;48.796;9.026;2022-07-06T22:45:23;5.13;;;2.20;;
15297;SDS011;7750;48.796;9.026;2022-07-06T22:50:24;3.13;;;1.97;;
15297;SDS011;7750;48.796;9.026;2022-07-06T22:55:24;4.00;;;2.13;;
15297;SDS011;7750;48.796;9.026;2022-07-06T23:00:25;3.33;;;2.10;;
15297;SDS011;7750;48.796;9.026;2022-07-06T23:05:26;10.13;;;2.47;;
15297;SDS011;7750;48.796;9.026;2022-07-06T23:10:27;4.10;;;2.33;;
15297;SDS011;7750;48.796;9.026;2022-07-06T23:15:28;3.87;;;2.47;;
15297;SDS011;7750;48.796;9.026;2022-07-06T23:20:28;3.20;;;2.10;;
15297;SDS011;7750;48.796;9.026;2022-07-06T23:25:29;5.73;;;2.30;;
15297;SDS011;7750;48.796;9.026;2022-07-06T23:30:30;3.37;;;2.07;;
15297;SDS011;7750;48.796;9.026;2022-07-06T23:35:31;3.70;;;2.10;;
15297;SDS011;7750;48.796;9.026;2022-07-06T23:40:32;4.97;;;2.30;;
15297;SDS011;7750;48.796;9.026;2022-07-06T23:45:32;5.60;;;1.80;;
15297;SDS011;7750;48.796;9.026;2022-07-06T23:50:33;6.40;;;2.30;;
15297;SDS011;7750;48.796;9.026;2022-07-06T23:55:34;4.00;;;1.80;;
